Tiempo atmosférico en la estación meteorológica de Pedrosa Del Príncipe, Burgos (771 m.)



Fecha
DESCASC
Temp. máxima en grados centígrados (hora)
DESCASC
Temp. mínima en grados centígrados (hora)
DESCASC
Temp. media en grados centígrados
DESCASC
Racha de viento máxima en m/sg (hora)
DESCASC
Velocidad máxima media en intervalos de 10 minutos(hora)
DESCASC
Precipitaciones diarias en mm
DESCASC
Precipitaciones de 00:00 a 06:00 en mm
DESCASC
Precipitaciones de 06:00 a 12:00 en mm
DESCASC
Precipitaciones de 12:00 a 18:00 en mm
DESCASC
Precipitaciones de 18:00 a 24:00 en mm
DESCASC
03-05-2019 15.1 (16:10) 0.9 (00:00) 8 12.78 (14:00) 6.67 (17:40) 0 0 0 0 0
18-05-2019 13.5 (13:20) 2.9 (00:00) 8.2 10.28 (14:10) 5.83 (16:50) 0.2 0 0 0 0.2
19-05-2019 16.1 (17:20) 0.6 (00:00) 8.4 9.44 (20:10) 5.28 (20:20) 0 0 0 0 0
05-05-2019 15.4 (18:20) 3 (00:00) 9.2 10.28 (13:00) 5.56 (11:50) 0 0 0 0 0
04-05-2019 19.9 (17:40) -0.9 (-00:0) 9.5 12.22 (20:20) 6.94 (20:10) 0 0 0 0 0
17-05-2019 13 (17:30) 6.2 (00:00) 9.6 10.56 (06:20) 6.67 (11:00) 5.8 3.2 0 0.6 2
26-04-2019 14.8 (19:10) 4.5 (00:00) 9.7 12.5 (01:00) 7.5 (00:20) 0 0 0 0 0
27-04-2019 19.2 (19:00) 1.1 (00:00) 10.2 6.67 (21:10) 3.89 (20:50) 0 0 0 0 0
09-05-2019 16.1 (20:40) 5.1 (00:00) 10.6 11.94 (21:30) 7.22 (21:30) 1.2 0 0 0 1.2
20-05-2019 19.4 (17:50) 1.8 (07:10) 10.6 6.11 (00:20) 3.33 (00:20) 0 0 0 0 0
02-05-2019 17.6 (17:10) 3.5 (07:00) 10.6 12.22 (10:30) 6.94 (10:20) 0 0 0 0 0
12-05-2019 21.2 (15:50) 1.5 (00:00) 11.4 11.67 (17:30) 6.11 (17:30) 0 0 0 0 0
06-05-2019 23.9 (17:50) -0.6 (-00:0) 11.6 7.5 (17:20) 4.17 (18:00) 0 0 0 0 0
11-05-2019 19.1 (16:50) 5.1 (00:00) 12.1 8.33 (17:00) 4.72 (19:50) 0 0 0 0 0
28-04-2019 21.3 (17:20) 3.2 (00:00) 12.2 6.67 (20:00) 3.61 (20:00) 0 0 0 0 0
07-05-2019 19.9 (15:20) 5.9 (00:00) 12.9 14.17 (15:10) 8.33 (15:30) 2.8 0 0 0 2.8
21-05-2019 21.7 (17:10) 4.1 (06:50) 12.9 7.78 (18:00) 3.89 (18:40) 0 0 0 0 0
01-05-2019 22.7 (16:10) 3.5 (00:00) 13.1 14.44 (19:50) 8.89 (20:20) 0 0 0 0 0
13-05-2019 22.9 (17:20) 3.5 (00:00) 13.2 13.06 (12:00) 7.22 (12:10) 0 0 0 0 0
08-05-2019 17.3 (15:40) 9.4 (00:00) 13.3 20.28 (15:30) 11.94 (14:50) 1.2 0 1.2 0 0
30-04-2019 22.4 (17:40) 5.4 (00:00) 13.9 6.94 (13:00) 3.89 (23:40) 0 0 0 0 0
29-04-2019 23.2 (17:20) 4.8 (00:00) 14 5.56 (02:40) 3.61 (02:40) 0 0 0 0 0
22-05-2019 25.2 (18:00) 3.9 (07:10) 14.6 8.06 (17:10) 3.33 (15:20) 0 0 0 0 0
14-05-2019 27.8 (17:40) 3.2 (00:00) 15.5 6.67 (10:40) 3.89 (10:40) 0 0 0 0 0
15-05-2019 28 (16:10) 3.4 (00:00) 15.7 7.78 (17:00) 3.89 (17:00) 0 0 0 0 0
16-05-2019 26.5 (15:00) 5.7 (00:00) 16.1 11.39 (21:10) 7.78 (16:40) 10.6 0 0 0 10.6
23-05-2019 25.3 (17:40) 9.4 (07:20) 17.3 13.61 (20:30) 8.33 (20:30) 0 0 0 0 0
10-05-2019 22.7 (17:20) 13.3 (00:00) 18 13.06 (17:20) 7.5 (14:40) 1.8 0 1.8 0 0

Gráficas

Temp. máximas Temp. mínimas Temp. medias Precipitaciones Rachas de viento máximas Velocidades máximas media en intervalos de 10 minutos

Datos horarios

Fecha y hora oficial Temperatura (ºC) Velocidad del viento (km/h) Dirección del viento Racha (km/h) Dirección de racha Precipitación (mm) Presión (hPa) Tendencia (hPa) Humedad (%)
2019-05-25 23:00:00 9.7 9 Nordeste 18 Este 0 -- -- 75
2019-05-25 22:00:00 11.6 8 Nordeste 31 Nordeste 0 -- -- 68
2019-05-25 21:00:00 14 15 Nordeste 30 Este 0 -- -- 57
2019-05-25 20:00:00 15.7 15 Este 30 Este 0 -- -- 54
2019-05-25 19:00:00 16.6 18 Nordeste 33 Este 0 -- -- 54
2019-05-25 18:00:00 17.7 16 Nordeste 41 Nordeste 0 -- -- 49
2019-05-25 17:00:00 17.7 19 Nordeste 35 Este 0 -- -- 49
2019-05-25 16:00:00 17.8 19 Nordeste 37 Nordeste 0 -- -- 48
2019-05-25 15:00:00 17.4 18 Nordeste 38 Nordeste 0 -- -- 49
2019-05-25 14:00:00 16.7 19 Nordeste 37 Nordeste 0 -- -- 53
2019-05-25 13:00:00 15.8 19 Nordeste 39 Nordeste 0 -- -- 55
2019-05-25 12:00:00 14.3 19 Nordeste 35 Nordeste 0 -- -- 59
2019-05-25 11:00:00 14 19 Nordeste 37 Nordeste 0 -- -- 55
2019-05-25 10:00:00 11.8 21 Nordeste 36 Nordeste 0 -- -- 65
2019-05-25 09:00:00 10.3 18 Nordeste 28 Nordeste 0 -- -- 74
2019-05-25 08:00:00 8.9 12 Nordeste 28 Nordeste 0 -- -- 80
2019-05-25 07:00:00 9.4 11 Nordeste 24 Nordeste 0 -- -- 84
2019-05-25 06:00:00 8.4 4 Este 18 Nordeste 0 -- -- 89
2019-05-25 05:00:00 6.2 10 Nordeste 17 Nordeste 0 -- -- 91
2019-05-25 04:00:00 6.3 5 Nordeste 10 Este 0 -- -- 87
2019-05-25 03:00:00 7.2 6 Nordeste 24 Nordeste 0 -- -- 85
2019-05-25 02:00:00 8.4 10 Nordeste 24 Nordeste 0 -- -- 83
2019-05-25 01:00:00 8.7 6 Nordeste 25 Nordeste 0 -- -- 81
2019-05-25 00:00:00 9.4 12 Nordeste 27 Este 0 -- -- 78
2019-05-24 23:00:00 10.2 13 Nordeste 31 Nordeste 0 -- -- 77
2019-05-24 22:00:00 10.1 14 Nordeste 35 Nordeste 0 -- -- 76
2019-05-24 21:00:00 11.9 18 Nordeste 45 Nordeste 0 -- -- 68
2019-05-24 20:00:00 14 21 Nordeste 42 Norte 0 -- -- 61
2019-05-24 19:00:00 14.9 24 Nordeste 46 Nordeste 0 -- -- 53
2019-05-24 18:00:00 16 24 Nordeste 45 Nordeste 0 -- -- 51
2019-05-24 17:00:00 16.7 25 Nordeste 40 Nordeste 0 -- -- 47
2019-05-24 16:00:00 17.5 22 Nordeste 40 Nordeste 0 -- -- 45
2019-05-24 15:00:00 17.3 19 Nordeste 39 Nordeste 0 -- -- 49
2019-05-24 14:00:00 16.5 19 Nordeste 35 Norte 0 -- -- 55
2019-05-24 13:00:00 15.8 16 Nordeste 36 Nordeste 0 -- -- 52
2019-05-24 12:00:00 15.4 15 Nordeste 33 Nordeste 0 -- -- 58
2019-05-24 11:00:00 13.5 16 Nordeste 35 Nordeste 0 -- -- 63
2019-05-24 10:00:00 12.3 19 Nordeste 32 Nordeste 0 -- -- 65
2019-05-24 09:00:00 10.7 18 Nordeste 31 Este 0 -- -- 69
2019-05-24 08:00:00 8 14 Nordeste 27 Nordeste 0 -- -- 82
2019-05-24 07:00:00 8.8 13 Nordeste 26 Nordeste 0 -- -- 77
2019-05-24 06:00:00 9.4 14 Nordeste 26 Nordeste 0 -- -- 81
2019-05-24 05:00:00 10.3 15 Nordeste 28 Este 0 -- -- 79
2019-05-24 04:00:00 10.6 15 Nordeste 33 Este 0 -- -- 77
2019-05-24 03:00:00 11.1 15 Nordeste 36 Nordeste 0 -- -- 73
2019-05-24 02:00:00 11.2 18 Nordeste 44 Nordeste 0 -- -- 75
2019-05-24 01:00:00 11.2 18 Nordeste 35 Nordeste 0 -- -- 76
2019-05-24 00:00:00 11.5 20 Nordeste 44 Nordeste 0 -- -- 78
2019-05-23 23:00:00 11.9 23 Nordeste 43 Nordeste 0 -- -- 82
2019-05-23 22:00:00 12.4 23 Nordeste 49 Nordeste 0 -- -- 77
2019-05-23 21:00:00 13.6 26 Nordeste 49 Nordeste 0 -- -- 73
2019-05-23 20:00:00 16.1 22 Nordeste 40 Nordeste 0 -- -- 68
2019-05-23 19:00:00 20.6 23 Nordeste 38 Norte 0 -- -- 53
2019-05-23 18:00:00 25.3 8 Oeste 15 Oeste 0 -- -- 39
2019-05-23 17:00:00 24.5 6 Norte 20 Noroeste 0 -- -- 40
2019-05-23 16:00:00 23.9 6 Noroeste 18 Noroeste 0 -- -- 45
2019-05-23 15:00:00 21.5 6 Noroeste 14 Noroeste 0 -- -- 50
2019-05-23 14:00:00 20.6 4 Oeste 14 Oeste 0 -- -- 53
2019-05-23 13:00:00 20 5 Oeste 13 Oeste 0 -- -- 52
2019-05-23 12:00:00 19.5 6 Oeste 14 Sudoeste 0 -- -- 55
2019-05-23 11:00:00 17.9 7 Sur 17 Sudeste 0 -- -- 57
2019-05-23 10:00:00 16.6 5 Sur 20 Sudeste 0 -- -- 60
2019-05-23 09:00:00 14.3 5 Nordeste 10 Este 0 -- -- 70
2019-05-23 08:00:00 10.1 2 Nordeste 6 Nordeste 0 -- -- 89
2019-05-23 07:00:00 10 2 Sudeste 5 Este 0 -- -- 84
2019-05-23 06:00:00 10.9 4 Este 10 Este 0 -- -- 82
2019-05-23 05:00:00 10.9 5 Nordeste 13 Nordeste 0 -- -- 83
2019-05-23 04:00:00 10.9 5 Este 9 Este 0 -- -- 83
2019-05-23 03:00:00 10.5 2 Este 4 Nordeste 0 -- -- 82
2019-05-23 02:00:00 11.8 0 Calma 10 Este 0 -- -- 75
2019-05-23 01:00:00 13.3 9 Nordeste 16 Nordeste 0 -- -- 70
2019-05-23 00:00:00 13.1 10 Nordeste 17 Nordeste 0 -- -- 67
2019-05-22 23:00:00 15.2 5 Este 11 Nordeste 0 -- -- 57
2019-05-22 22:00:00 17.6 5 Nordeste 8 Nordeste 0 -- -- 52
2019-05-22 21:00:00 22.6 4 Nordeste 9 Nordeste 0 -- -- 39
2019-05-22 20:00:00 24.6 2 Norte 13 Oeste 0 -- -- 30
2019-05-22 19:00:00 24.5 3 Sur 15 Sudoeste 0 -- -- 30
2019-05-22 18:00:00 25.2 9 Sudoeste 29 Oeste 0 -- -- 29
2019-05-22 17:00:00 25.1 9 Oeste 21 Oeste 0 -- -- 29
2019-05-22 16:00:00 24.2 8 Noroeste 23 Noroeste 0 -- -- 31
2019-05-22 15:00:00 23.7 10 Oeste 20 Noroeste 0 -- -- 33
2019-05-22 14:00:00 22.4 6 Sudoeste 13 Oeste 0 -- -- 36
2019-05-22 13:00:00 20.9 6 Noroeste 10 Oeste 0 -- -- 35
2019-05-22 12:00:00 18.7 3 Nordeste 11 Norte 0 -- -- 42
2019-05-22 11:00:00 16.4 3 Este 9 Este 0 -- -- 53
2019-05-22 10:00:00 13.2 4 Nordeste 9 Nordeste 0 -- -- 63
2019-05-22 09:00:00 9.9 4 Nordeste 9 Nordeste 0 -- -- 73
2019-05-22 08:00:00 5.2 5 Nordeste 10 Nordeste 0 -- -- 90
2019-05-22 07:00:00 4 2 Nordeste 10 Nordeste 0 -- -- 89
2019-05-22 06:00:00 4.5 5 Nordeste 13 Este 0 -- -- 89
2019-05-22 05:00:00 5.4 4 Nordeste 9 Este 0 -- -- 86
2019-05-22 04:00:00 6.2 4 Nordeste 10 Nordeste 0 -- -- 84
2019-05-22 03:00:00 7.8 0 Calma 7 Este 0 -- -- 80
2019-05-22 02:00:00 8.5 2 Nordeste 18 Nordeste 0 -- -- 77
2019-05-22 01:00:00 9.2 10 Este 18 Nordeste 0 -- -- 81
2019-05-22 00:00:00 10.1 9 Nordeste 18 Este 0 -- -- 79
2019-05-21 23:00:00 11.6 7 Nordeste 18 Este 0 -- -- 72
2019-05-21 22:00:00 13.6 7 Nordeste 15 Este 0 -- -- 63
2019-05-21 21:00:00 18 10 Este 22 Este 0 -- -- 45
2019-05-21 20:00:00 20.1 10 Este 23 Este 0 -- -- 38
2019-05-21 19:00:00 20.1 8 Este 24 Este 0 -- -- 37
2019-05-21 18:00:00 21.2 13 Este 28 Nordeste 0 -- -- 36
2019-05-21 17:00:00 21.3 8 Nordeste 20 Este 0 -- -- 34
2019-05-21 16:00:00 20.7 10 Nordeste 24 Este 0 -- -- 33
2019-05-21 15:00:00 20.5 7 Este 23 Norte 0 -- -- 39
2019-05-21 14:00:00 19.6 10 Nordeste 21 Nordeste 0 -- -- 40
2019-05-21 13:00:00 18.6 9 Este 19 Este 0 -- -- 48
2019-05-21 12:00:00 17.6 8 Este 19 Este 0 -- -- 48
2019-05-21 11:00:00 15.3 6 Nordeste 15 Nordeste 0 -- -- 58
2019-05-21 10:00:00 12.5 6 Nordeste 12 Nordeste 0 -- -- 71
2019-05-21 09:00:00 9 6 Este 13 Nordeste 0 -- -- 79
2019-05-21 08:00:00 5.3 4 Nordeste 11 Nordeste 0 -- -- 90
2019-05-21 07:00:00 4.1 3 Este 8 Nordeste 0 -- -- 90
2019-05-21 06:00:00 5 4 Nordeste 15 Este 0 -- -- 89
2019-05-21 05:00:00 5.5 6 Este 15 Este 0 -- -- 90
2019-05-21 04:00:00 6 9 Este 16 Este 0 -- -- 91
2019-05-21 03:00:00 6.4 0 Calma 11 Este 0 -- -- 88
2019-05-21 02:00:00 7.4 7 Nordeste 13 Nordeste 0 -- -- 86
2019-05-21 01:00:00 8.6 6 Nordeste 15 Este 0 -- -- 81
2019-05-21 00:00:00 9.8 6 Este 20 Nordeste 0 -- -- 75
2019-05-20 23:00:00 10.6 11 Nordeste 19 Este 0 -- -- 71
2019-05-20 22:00:00 12.1 10 Nordeste 15 Nordeste 0 -- -- 65
2019-05-20 21:00:00 15.2 4 Este 15 Nordeste 0 -- -- 56
2019-05-20 20:00:00 16.8 9 Nordeste 16 Nordeste 0 -- -- 44
2019-05-20 19:00:00 17.7 9 Nordeste 20 Nordeste 0 -- -- 39
2019-05-20 18:00:00 19.4 7 Nordeste 16 Este 0 -- -- 37
2019-05-20 17:00:00 18.7 5 Nordeste 14 Este 0 -- -- 36
2019-05-20 16:00:00 17.9 7 Este 18 Nordeste 0 -- -- 40
2019-05-20 15:00:00 17.6 4 Noroeste 15 Este 0 -- -- 43
2019-05-20 14:00:00 17.1 8 Sudeste 18 Este 0 -- -- 46
2019-05-20 13:00:00 15.6 6 Nordeste 18 Nordeste 0 -- -- 49
2019-05-20 12:00:00 14.3 9 Este 21 Este 0 -- -- 56
2019-05-20 11:00:00 12.9 11 Este 18 Este 0 -- -- 55
2019-05-20 10:00:00 11.1 7 Este 17 Este 0 -- -- 63
2019-05-20 09:00:00 7.7 5 Nordeste 11 Nordeste 0 -- -- 78
2019-05-20 08:00:00 3.5 6 Nordeste 15 Este 0 -- -- 92
2019-05-20 07:00:00 1.9 4 Nordeste 8 Nordeste 0 -- -- 91
2019-05-20 06:00:00 2.6 3 Nordeste 11 Nordeste 0 -- -- 91
2019-05-20 05:00:00 3.1 6 Nordeste 14 Nordeste 0 -- -- 89
2019-05-20 04:00:00 3.6 6 Nordeste 14 Nordeste 0 -- -- 87
2019-05-20 03:00:00 4.1 9 Nordeste 15 Nordeste 0 -- -- 86
2019-05-20 02:00:00 4.6 8 Nordeste 18 Nordeste 0 -- -- 84
2019-05-20 01:00:00 5 7 Nordeste 22 Este 0 -- -- 83
2019-05-20 00:00:00 6 12 Este 20 Nordeste 0 -- -- 81
2019-05-19 23:00:00 6.7 8 Este 17 Nordeste 0 -- -- 79
2019-05-19 22:00:00 8.4 8 Este 28 Nordeste 0 -- -- 74
2019-05-19 21:00:00 10.7 16 Nordeste 34 Nordeste 0 -- -- 65
2019-05-19 20:00:00 13.3 16 Nordeste 30 Este 0 -- -- 56
2019-05-19 19:00:00 14.4 17 Este 28 Este 0 -- -- 54
2019-05-19 18:00:00 15.8 14 Este 29 Este 0 -- -- 51
2019-05-19 17:00:00 15.3 12 Nordeste 19 Nordeste 0 -- -- 48
2019-05-19 16:00:00 15.2 4 Sudeste 13 Este 0 -- -- 44
2019-05-19 15:00:00 14.9 7 Este 15 Norte 0 -- -- 44
2019-05-19 14:00:00 13.8 5 Sudoeste 22 Noroeste 0 -- -- 49
2019-05-19 13:00:00 13.8 4 Oeste 12 Este 0 -- -- 50
2019-05-19 12:00:00 12.9 5 Este 11 Sudeste 0 -- -- 61
2019-05-19 11:00:00 9.4 3 Nordeste 9 Oeste 0 -- -- 75
2019-05-19 10:00:00 7.8 3 Noroeste 10 Noroeste 0 -- -- 79
2019-05-19 09:00:00 4.9 2 Oeste 6 Oeste 0 -- -- 92
2019-05-19 08:00:00 0.7 0 Calma 3 Nordeste 0 -- -- 94
2019-05-19 07:00:00 0.7 0 Calma 5 Este 0 -- -- 93
2019-05-19 06:00:00 1 0 Calma 3 Noroeste 0 -- -- 93
2019-05-19 05:00:00 1.4 2 Nordeste 3 Nordeste 0 -- -- 92
2019-05-19 04:00:00 2.6 0 Calma 7 Este 0 -- -- 90
2019-05-19 03:00:00 3.7 0 Calma 5 Sudoeste 0 -- -- 88
2019-05-19 02:00:00 5 3 Sudeste 10 Este 0 -- -- 86
2019-05-19 01:00:00 5.8 3 Nordeste 9 Nordeste 0 -- -- 85
2019-05-19 00:00:00 7.8 0 Calma 5 Nordeste 0 -- -- 82
2019-05-18 23:00:00 8.8 4 Norte 19 Norte 0 -- -- 71
2019-05-18 22:00:00 9.8 10 Norte 20 Norte 0 -- -- 61
2019-05-18 21:00:00 11.3 12 Norte 23 Norte 0 -- -- 58
2019-05-18 20:00:00 12.2 12 Noroeste 20 Oeste 0 -- -- 58
2019-05-18 19:00:00 10.8 6 Oeste 33 Noroeste 0.2 -- -- 67
2019-05-18 18:00:00 12.6 15 Noroeste 33 Noroeste 0 -- -- 54
2019-05-18 17:00:00 12.2 16 Oeste 35 Oeste 0 -- -- 55
2019-05-18 16:00:00 12.5 17 Noroeste 32 Noroeste 0 -- -- 53
2019-05-18 15:00:00 11.4 5 Oeste 37 Noroeste 0 -- -- 59
2019-05-18 14:00:00 12.8 17 Noroeste 32 Noroeste 0 -- -- 55
2019-05-18 13:00:00 12.5 16 Noroeste 33 Oeste 0 -- -- 58
2019-05-18 12:00:00 11.2 15 Oeste 30 Oeste 0 -- -- 64
2019-05-18 11:00:00 9.4 15 Oeste 25 Oeste 0 -- -- 69
2019-05-18 10:00:00 7.2 10 Oeste 22 Oeste 0 -- -- 80
2019-05-18 09:00:00 5.7 8 Oeste 18 Oeste 0 -- -- 83
2019-05-18 08:00:00 3.5 8 Sudoeste 16 Sudoeste 0 -- -- 88
2019-05-18 07:00:00 2.9 6 Sudoeste 15 Oeste 0 -- -- 88
2019-05-18 06:00:00 3.7 8 Sudoeste 15 Sudoeste 0 -- -- 86
2019-05-18 05:00:00 4.4 9 Oeste 17 Oeste 0 -- -- 85
2019-05-18 04:00:00 5.2 7 Sudoeste 12 Sudoeste 0 -- -- 85
2019-05-18 03:00:00 5.9 4 Sudoeste 9 Sudoeste 0 -- -- 90
2019-05-18 02:00:00 6.1 3 Sudoeste 8 Sudoeste 0 -- -- 90
2019-05-18 01:00:00 6.7 3 Sudoeste 10 Sudeste 0 -- -- 87
2019-05-18 00:00:00 6.2 0 Calma 12 Este 0 -- -- 88
2019-05-17 23:00:00 7.7 3 Este 15 Este 0.2 -- -- 87
2019-05-17 22:00:00 8.2 8 Este 23 Oeste 1.2 -- -- 84
2019-05-17 21:00:00 9.8 11 Oeste 21 Oeste 0.6 -- -- 80
2019-05-17 20:00:00 11.6 10 Este 17 Este 0 -- -- 68
2019-05-17 19:00:00 11.7 5 Nordeste 13 Este 0 -- -- 70
2019-05-17 18:00:00 11.9 3 Norte 10 Norte 0.4 -- -- 68
2019-05-17 17:00:00 11.7 4 Este 14 Nordeste 0.2 -- -- 67
2019-05-17 16:00:00 12.2 9 Este 18 Nordeste 0 -- -- 64
2019-05-17 15:00:00 11.1 9 Norte 19 Nordeste 0 -- -- 65
2019-05-17 14:00:00 11.7 13 Norte 33 Noroeste 0 -- -- 60
2019-05-17 13:00:00 11.1 15 Noroeste 30 Oeste 0 -- -- 64
2019-05-17 12:00:00 10.7 15 Noroeste 33 Noroeste 0 -- -- 66
2019-05-17 11:00:00 12.4 24 Noroeste 38 Noroeste 0 -- -- 64
2019-05-17 10:00:00 9.9 18 Noroeste 30 Oeste 0 -- -- 74
2019-05-17 09:00:00 9 14 Oeste 30 Oeste 0 -- -- 81
2019-05-17 08:00:00 7.2 15 Oeste 32 Oeste 0 -- -- 85
2019-05-17 07:00:00 7 17 Oeste 38 Oeste 0 -- -- 85
2019-05-17 06:00:00 7.7 17 Oeste 32 Oeste 0 -- -- 85
2019-05-17 05:00:00 7.5 12 Oeste 23 Oeste 0 -- -- 89
2019-05-17 04:00:00 7.5 13 Oeste 28 Oeste 0 -- -- 88
2019-05-17 03:00:00 7.8 5 Sur 10 Sudoeste 0 -- -- 91
2019-05-17 02:00:00 7.7 2 Sudoeste 15 Oeste 0.8 -- -- 92
2019-05-17 01:00:00 7.3 0 Calma 15 Este 2.4 -- -- 91
2019-05-17 00:00:00 7.7 4 Nordeste 24 Norte 6.4 -- -- 90
2019-05-16 23:00:00 9.1 12 Nordeste 33 Sudoeste 4.2 -- -- 86
2019-05-16 22:00:00 10.5 14 Nordeste 41 Este 0 -- -- 82
2019-05-16 21:00:00 11.1 15 Nordeste 32 Nordeste 0 -- -- 80
2019-05-16 20:00:00 13.9 18 Nordeste 36 Nordeste 0 -- -- 68
2019-05-16 19:00:00 18.4 10 Norte 28 Este 0 -- -- 53
2019-05-16 18:00:00 17.9 13 Este 36 Nordeste 0 -- -- 55
2019-05-16 17:00:00 19.5 25 Norte 40 Norte 0 -- -- 48
2019-05-16 16:00:00 25.5 17 Noroeste 30 Oeste 0 -- -- 25
2019-05-16 15:00:00 26.5 7 Noroeste 20 Noroeste 0 -- -- 26
2019-05-16 14:00:00 25.3 7 Oeste 16 Oeste 0 -- -- 30
2019-05-16 13:00:00 23.4 5 Sur 13 Sudoeste 0 -- -- 34
2019-05-16 12:00:00 21.2 6 Sudeste 15 Este 0 -- -- 37
2019-05-16 11:00:00 19.7 9 Sudeste 19 Sudeste 0 -- -- 37
2019-05-16 10:00:00 17.1 8 Este 14 Este 0 -- -- 41
2019-05-16 09:00:00 11.2 5 Nordeste 10 Nordeste 0 -- -- 63
2019-05-16 08:00:00 7.2 3 Nordeste 6 Nordeste 0 -- -- 79
2019-05-16 07:00:00 6.3 3 Este 3 Este 0 -- -- 78
2019-05-16 06:00:00 7.4 0 Calma 6 Este 0 -- -- 76
2019-05-16 05:00:00 9.5 4 Nordeste 8 Nordeste 0 -- -- 68
2019-05-16 04:00:00 11 3 Nordeste 9 Este 0 -- -- 60
2019-05-16 03:00:00 11 7 Este 13 Este 0 -- -- 53
2019-05-16 02:00:00 11.8 5 Este 17 Nordeste 0 -- -- 58
2019-05-16 01:00:00 13.7 10 Nordeste 18 Nordeste 0 -- -- 54
2019-05-16 00:00:00 14 10 Nordeste 17 Nordeste 0 -- -- 55
2019-05-15 23:00:00 15.2 10 Nordeste 15 Nordeste 0 -- -- 49
2019-05-15 22:00:00 17 10 Nordeste 19 Este 0 -- -- 45
2019-05-15 21:00:00 22 8 Este 19 Este 0 -- -- 33
2019-05-15 20:00:00 25.5 11 Este 23 Este 0 -- -- 26
2019-05-15 19:00:00 27.2 9 Nordeste 20 Este 0 -- -- 22
2019-05-15 18:00:00 27.2 10 Nordeste 23 Nordeste 0 -- -- 22
2019-05-15 17:00:00 26.7 14 Nordeste 28 Nordeste 0 -- -- 20
2019-05-15 16:00:00 27.7 9 Nordeste 22 Este 0 -- -- 23
2019-05-15 15:00:00 26.9 9 Este 21 Este 0 -- -- 23
2019-05-15 14:00:00 26.6 12 Este 24 Nordeste 0 -- -- 24
2019-05-15 13:00:00 25.2 10 Este 22 Este 0 -- -- 24
2019-05-15 12:00:00 23.3 8 Nordeste 20 Nordeste 0 -- -- 26
2019-05-15 11:00:00 19.8 6 Este 12 Este 0 -- -- 34
2019-05-15 10:00:00 14.9 2 Sudeste 6 Este 0 -- -- 46
2019-05-15 09:00:00 10.6 3 Este 5 Este 0 -- -- 53
2019-05-15 08:00:00 5 3 Sudoeste 5 Sudoeste 0 -- -- 76
2019-05-15 07:00:00 3.8 2 Sudoeste 8 Este 0 -- -- 71
2019-05-15 06:00:00 4.3 4 Este 8 Este 0 -- -- 65
2019-05-15 05:00:00 4.6 2 Este 8 Sudeste 0 -- -- 68
2019-05-15 04:00:00 5.2 4 Este 8 Este 0 -- -- 69
2019-05-15 03:00:00 6.1 4 Este 6 Este 0 -- -- 69
2019-05-15 02:00:00 8 3 Nordeste 8 Nordeste 0 -- -- 70
2019-05-15 01:00:00 9.5 3 Nordeste 9 Nordeste 0 -- -- 71
2019-05-15 00:00:00 11.1 6 Nordeste 8 Nordeste 0 -- -- 70
2019-05-14 23:00:00 13.1 6 Nordeste 10 Este 0 -- -- 62
2019-05-14 22:00:00 16.8 8 Nordeste 12 Este 0 -- -- 44
2019-05-14 21:00:00 23.2 5 Nordeste 12 Nordeste 0 -- -- 32
2019-05-14 20:00:00 26.6 7 Nordeste 17 Este 0 -- -- 22
2019-05-14 19:00:00 27.3 10 Nordeste 18 Nordeste 0 -- -- 19
2019-05-14 18:00:00 27.8 10 Norte 18 Norte 0 -- -- 17
2019-05-14 17:00:00 27.5 5 Norte 18 Este 0 -- -- 17
2019-05-14 16:00:00 26.1 7 Nordeste 16 Norte 0 -- -- 19
2019-05-14 15:00:00 24.5 6 Sudeste 17 Nordeste 0 -- -- 28
2019-05-14 14:00:00 23 5 Este 16 Este 0 -- -- 28
2019-05-14 13:00:00 21 6 Nordeste 16 Nordeste 0 -- -- 28
2019-05-14 12:00:00 18.7 8 Nordeste 22 Nordeste 0 -- -- 36
2019-05-14 11:00:00 16.6 12 Este 24 Este 0 -- -- 40
2019-05-14 10:00:00 12.8 7 Nordeste 14 Nordeste 0 -- -- 52
2019-05-14 09:00:00 9.4 7 Nordeste 16 Nordeste 0 -- -- 61
2019-05-14 08:00:00 4.8 10 Nordeste 15 Este 0 -- -- 76
2019-05-14 07:00:00 3.4 10 Nordeste 18 Nordeste 0 -- -- 78
2019-05-14 06:00:00 4.3 3 Sudoeste 18 Este 0 -- -- 72
2019-05-14 05:00:00 3.8 3 Este 11 Nordeste 0 -- -- 74
2019-05-14 04:00:00 4.2 5 Norte 8 Noroeste 0 -- -- 70
2019-05-14 03:00:00 4.7 0 Calma 8 Nordeste 0 -- -- 69
2019-05-14 02:00:00 6.4 0 Calma 22 Este 0 -- -- 59
2019-05-14 01:00:00 6.8 12 Este 23 Este 0 -- -- 61
2019-05-14 00:00:00 8.7 11 Nordeste 32 Nordeste 0 -- -- 52
2019-05-13 23:00:00 10.2 13 Nordeste 25 Nordeste 0 -- -- 38
2019-05-13 22:00:00 12.3 17 Nordeste 28 Nordeste 0 -- -- 28
2019-05-13 21:00:00 16.1 16 Nordeste 35 Nordeste 0 -- -- 23
2019-05-13 20:00:00 19.6 18 Nordeste 38 Nordeste 0 -- -- 24
2019-05-13 19:00:00 21.4 22 Nordeste 36 Nordeste 0 -- -- 20
2019-05-13 18:00:00 22.9 19 Nordeste 40 Este 0 -- -- 19
2019-05-13 17:00:00 22.6 23 Este 45 Nordeste 0 -- -- 19
2019-05-13 16:00:00 22.8 22 Nordeste 41 Este 0 -- -- 21
2019-05-13 15:00:00 21.7 20 Nordeste 41 Nordeste 0 -- -- 23
2019-05-13 14:00:00 20.2 24 Nordeste 44 Nordeste 0 -- -- 27
2019-05-13 13:00:00 19 22 Nordeste 44 Este 0 -- -- 26
2019-05-13 12:00:00 17.4 26 Nordeste 47 Nordeste 0 -- -- 25
2019-05-13 11:00:00 15.4 21 Nordeste 39 Nordeste 0 -- -- 32
2019-05-13 10:00:00 11.6 14 Nordeste 28 Nordeste 0 -- -- 63
2019-05-13 09:00:00 8.4 12 Nordeste 24 Nordeste 0 -- -- 76
2019-05-13 08:00:00 4.7 9 Este 17 Este 0 -- -- 85
2019-05-13 07:00:00 3.5 8 Este 18 Este 0 -- -- 86
2019-05-13 06:00:00 4.6 10 Este 16 Este 0 -- -- 84
2019-05-13 05:00:00 4.7 9 Este 16 Este 0 -- -- 84
2019-05-13 04:00:00 4.2 4 Este 9 Este 0 -- -- 87
2019-05-13 03:00:00 5.1 6 Nordeste 14 Nordeste 0 -- -- 87
2019-05-13 02:00:00 6.2 6 Nordeste 15 Este 0 -- -- 83
2019-05-13 01:00:00 7 8 Este 17 Nordeste 0 -- -- 80
2019-05-13 00:00:00 8.2 10 Este 16 Este 0 -- -- 73
2019-05-12 23:00:00 9.4 10 Este 17 Nordeste 0 -- -- 64
2019-05-12 22:00:00 12.3 8 Nordeste 21 Este 0 -- -- 53
2019-05-12 21:00:00 16.4 9 Nordeste 28 Nordeste 0 -- -- 42
2019-05-12 20:00:00 19.4 17 Nordeste 33 Este 0 -- -- 35
2019-05-12 19:00:00 20.2 18 Este 36 Este 0 -- -- 34
2019-05-12 18:00:00 20.9 18 Este 42 Este 0 -- -- 32
2019-05-12 17:00:00 21 20 Este 37 Este 0 -- -- 32
2019-05-12 16:00:00 21.2 17 Nordeste 31 Este 0 -- -- 30
2019-05-12 15:00:00 20.3 14 Nordeste 33 Nordeste 0 -- -- 29
2019-05-12 14:00:00 18.6 18 Nordeste 37 Nordeste 0 -- -- 28
2019-05-12 13:00:00 17.5 15 Nordeste 32 Nordeste 0 -- -- 31
2019-05-12 12:00:00 15.5 17 Nordeste 29 Este 0 -- -- 36
2019-05-12 11:00:00 13.5 13 Nordeste 22 Nordeste 0 -- -- 40
2019-05-12 10:00:00 9.5 7 Nordeste 13 Norte 0 -- -- 71
2019-05-12 09:00:00 5.4 5 Nordeste 12 Nordeste 0 -- -- 88
2019-05-12 08:00:00 1.8 0 Calma 8 Nordeste 0 -- -- 93
2019-05-12 07:00:00 1.9 5 Este 15 Nordeste 0 -- -- 92
2019-05-12 06:00:00 2.8 8 Nordeste 14 Este 0 -- -- 91
2019-05-12 05:00:00 3.4 9 Este 14 Nordeste 0 -- -- 91
2019-05-12 04:00:00 3.6 7 Nordeste 12 Nordeste 0 -- -- 90
2019-05-12 03:00:00 4 5 Nordeste 12 Nordeste 0 -- -- 88
2019-05-12 02:00:00 4.9 6 Este 10 Nordeste 0 -- -- 84
2019-05-12 01:00:00 6 8 Nordeste 13 Nordeste 0 -- -- 81
2019-05-12 00:00:00 7 6 Este 14 Este 0 -- -- 78
2019-05-11 23:00:00 8.1 8 Este 15 Este 0 -- -- 73
2019-05-11 22:00:00 10.6 8 Este 24 Nordeste 0 -- -- 57
2019-05-11 21:00:00 14.2 14 Nordeste 28 Este 0 -- -- 47
2019-05-11 20:00:00 16.7 15 Nordeste 28 Este 0 -- -- 43
2019-05-11 19:00:00 18.2 13 Nordeste 29 Nordeste 0 -- -- 44
2019-05-11 18:00:00 18.7 13 Nordeste 29 Este 0 -- -- 45
2019-05-11 17:00:00 19 15 Nordeste 30 Nordeste 0 -- -- 42
2019-05-11 16:00:00 18.4 15 Este 27 Este 0 -- -- 44
2019-05-11 15:00:00 17.9 13 Este 24 Este 0 -- -- 47
2019-05-11 14:00:00 17.4 12 Este 26 Sudeste 0 -- -- 52
2019-05-11 13:00:00 15.5 10 Nordeste 25 Este 0 -- -- 56
2019-05-11 12:00:00 13.5 9 Nordeste 23 Nordeste 0 -- -- 68
2019-05-11 11:00:00 12.5 12 Este 26 Este 0 -- -- 74
2019-05-11 10:00:00 11.8 10 Este 19 Nordeste 0 -- -- 81
2019-05-11 09:00:00 9.9 9 Este 18 Este 0 -- -- 91
2019-05-11 08:00:00 6.7 0 Calma 5 Sudoeste 0 -- -- 94
2019-05-11 07:00:00 7.2 2 Sudoeste 5 Oeste 0 -- -- 93
2019-05-11 06:00:00 7 3 Sudoeste 4 Oeste 0 -- -- 94
2019-05-11 05:00:00 5.4 3 Este 5 Este 0 -- -- 92
2019-05-11 04:00:00 6.5 0 Calma 4 Noroeste 0 -- -- 89
2019-05-11 03:00:00 8 0 Calma 9 Nordeste 0 -- -- 88
2019-05-11 02:00:00 8.2 5 Este 9 Este 0 -- -- 85
2019-05-11 01:00:00 11 4 Oeste 15 Nordeste 0 -- -- 74
2019-05-11 00:00:00 13.3 4 Oeste 17 Sudoeste 0 -- -- 64
2019-05-10 23:00:00 14.5 9 Sudoeste 19 Oeste 0 -- -- 58
2019-05-10 22:00:00 17 12 Sudoeste 25 Oeste 0 -- -- 50
2019-05-10 21:00:00 19.3 13 Sudoeste 30 Sudoeste 0 -- -- 43
2019-05-10 20:00:00 21.3 18 Oeste 32 Oeste 0 -- -- 40
2019-05-10 19:00:00 22.4 19 Oeste 39 Oeste 0 -- -- 39
2019-05-10 18:00:00 22.4 21 Oeste 47 Oeste 0 -- -- 38
2019-05-10 17:00:00 22.1 27 Oeste 45 Sudoeste 0 -- -- 39
2019-05-10 16:00:00 22.3 25 Oeste 44 Oeste 0 -- -- 43
2019-05-10 15:00:00 20.5 17 Oeste 42 Oeste 0 -- -- 54
2019-05-10 14:00:00 18.7 18 Oeste 35 Sudoeste 0 -- -- 66
2019-05-10 13:00:00 18.4 23 Oeste 39 Oeste 0 -- -- 66
2019-05-10 12:00:00 17.1 26 Oeste 40 Oeste 0 -- -- 73
2019-05-10 11:00:00 15.6 17 Sudoeste 42 Sudoeste 1.6 -- -- 87
2019-05-10 10:00:00 15.3 22 Sudoeste 44 Sudoeste 0 -- -- 82
2019-05-10 09:00:00 14.6 19 Sudoeste 33 Sudoeste 0 -- -- 87
2019-05-10 08:00:00 14.5 18 Sudoeste 36 Sudoeste 0.2 -- -- 86
2019-05-10 07:00:00 14.3 17 Sudoeste 37 Sudoeste 0 -- -- 86
2019-05-10 06:00:00 14.2 21 Sudoeste 45 Sudoeste 0 -- -- 86
2019-05-10 05:00:00 14.5 20 Sudoeste 38 Oeste 0 -- -- 85
2019-05-10 04:00:00 14.5 19 Sudoeste 33 Sudoeste 0 -- -- 85
2019-05-10 03:00:00 14.6 18 Sudoeste 40 Sudoeste 0 -- -- 84
2019-05-10 02:00:00 14.6 19 Sudoeste 39 Sudoeste 0 -- -- 85
2019-05-10 01:00:00 14.3 16 Sudoeste 39 Sudoeste 0 -- -- 86
2019-05-10 00:00:00 14.8 16 Sudoeste 33 Sudoeste 0 -- -- 86
2019-05-09 23:00:00 14.7 18 Sudoeste 37 Sudoeste 0.4 -- -- 88
2019-05-09 22:00:00 14.5 15 Oeste 43 Sudoeste 0.8 -- -- 90
2019-05-09 21:00:00 16 23 Sudoeste 41 Sudoeste 0 -- -- 77
2019-05-09 20:00:00 15.2 17 Sudoeste 40 Sudoeste 0 -- -- 81
2019-05-09 19:00:00 14.4 16 Sudoeste 37 Oeste 0 -- -- 83
2019-05-09 18:00:00 15.2 15 Sudoeste 32 Oeste 0 -- -- 69
2019-05-09 17:00:00 15.5 17 Oeste 31 Oeste 0 -- -- 59
2019-05-09 16:00:00 14.4 10 Sudoeste 22 Sur 0 -- -- 58
2019-05-09 15:00:00 13.7 14 Oeste 29 Sudoeste 0 -- -- 57
2019-05-09 14:00:00 12 8 Oeste 28 Sudoeste 0 -- -- 69
2019-05-09 13:00:00 11.6 15 Sudoeste 35 Oeste 0 -- -- 63
2019-05-09 12:00:00 11.2 17 Oeste 32 Sudoeste 0 -- -- 61
2019-05-09 11:00:00 10.6 18 Sudoeste 30 Oeste 0 -- -- 65
2019-05-09 10:00:00 9.7 17 Oeste 29 Oeste 0 -- -- 70
2019-05-09 09:00:00 8.2 15 Oeste 29 Sudoeste 0 -- -- 76
2019-05-09 08:00:00 6.5 13 Sudoeste 22 Sudoeste 0 -- -- 84
2019-05-09 07:00:00 5.9 13 Sudoeste 21 Sudoeste 0 -- -- 83
2019-05-09 06:00:00 5.1 7 Sudoeste 22 Sudoeste 0 -- -- 84
2019-05-09 05:00:00 5.7 12 Sudoeste 25 Sudoeste 0 -- -- 81
2019-05-09 04:00:00 6 14 Sudoeste 28 Oeste 0 -- -- 77
2019-05-09 03:00:00 7.2 15 Oeste 34 Oeste 0 -- -- 71
2019-05-09 02:00:00 8 17 Sudoeste 32 Oeste 0 -- -- 69
2019-05-09 01:00:00 8.7 17 Oeste 40 Sudoeste 0 -- -- 65
2019-05-09 00:00:00 9.4 15 Sudoeste 37 Sudoeste 0 -- -- 62
2019-05-08 23:00:00 10.6 18 Sudoeste 43 Sudoeste 0 -- -- 57
2019-05-08 22:00:00 11.7 24 Oeste 54 Oeste 0 -- -- 51
2019-05-08 21:00:00 13.1 28 Oeste 52 Oeste 0 -- -- 46
2019-05-08 20:00:00 14.9 33 Oeste 66 Sudoeste 0 -- -- 37
2019-05-08 19:00:00 16.1 36 Oeste 63 Oeste 0 -- -- 39
2019-05-08 18:00:00 16.9 34 Oeste 66 Oeste 0 -- -- 41
2019-05-08 17:00:00 16.9 36 Oeste 63 Oeste 0 -- -- 42
2019-05-08 16:00:00 16.4 39 Oeste 73 Oeste 0 -- -- 40
2019-05-08 15:00:00 15.6 41 Oeste 67 Oeste 0 -- -- 43
2019-05-08 14:00:00 15.4 39 Oeste 59 Oeste 0 -- -- 50
2019-05-08 13:00:00 14.2 33 Oeste 60 Oeste 0 -- -- 61
2019-05-08 12:00:00 14 30 Oeste 58 Oeste 0 -- -- 71
2019-05-08 11:00:00 14 32 Sudoeste 56 Sudoeste 0.2 -- -- 81
2019-05-08 10:00:00 13.5 22 Sudoeste 47 Sudoeste 0.2 -- -- 83
2019-05-08 09:00:00 12.9 27 Sudoeste 46 Sudoeste 0.8 -- -- 85
2019-05-08 08:00:00 12.7 16 Sudoeste 42 Sudoeste 0 -- -- 88
2019-05-08 07:00:00 13.1 24 Sudoeste 48 Sudoeste 0 -- -- 83
2019-05-08 06:00:00 12.6 22 Sudoeste 39 Sudoeste 0 -- -- 88
2019-05-08 05:00:00 12.3 18 Sudoeste 36 Sudoeste 0 -- -- 86
2019-05-08 04:00:00 11.9 14 Sudoeste 29 Sudoeste 0 -- -- 90
2019-05-08 03:00:00 12.2 13 Sudoeste 26 Sudoeste 0 -- -- 86
2019-05-08 02:00:00 11.7 18 Sudoeste 38 Oeste 0 -- -- 87
2019-05-08 01:00:00 12.2 19 Sudoeste 42 Sudoeste 0 -- -- 79
2019-05-08 00:00:00 13 24 Sudoeste 47 Sudoeste 0.2 -- -- 78
2019-05-07 23:00:00 13.4 22 Sudoeste 39 Sudoeste 2.6 -- -- 88
2019-05-07 22:00:00 15.3 12 Sudoeste 30 Sudoeste 0 -- -- 76
2019-05-07 21:00:00 16.1 14 Oeste 34 Oeste 0 -- -- 69
2019-05-07 20:00:00 16.7 17 Oeste 39 Oeste 0 -- -- 64
2019-05-07 19:00:00 17.8 20 Oeste 40 Sudoeste 0 -- -- 58
2019-05-07 18:00:00 18.3 26 Oeste 51 Oeste 0 -- -- 52
2019-05-07 17:00:00 19.2 28 Sudoeste 44 Sudoeste 0 -- -- 49
2019-05-07 16:00:00 19.9 24 Oeste 51 Oeste 0 -- -- 45
2019-05-07 15:00:00 19.3 27 Oeste 50 Oeste 0 -- -- 45
2019-05-07 14:00:00 19.1 22 Sudoeste 42 Sudoeste 0 -- -- 51
2019-05-07 13:00:00 17.9 23 Sudoeste 39 Oeste 0 -- -- 56
2019-05-07 12:00:00 17.4 18 Oeste 32 Sudoeste 0 -- -- 60
2019-05-07 11:00:00 15.5 12 Sur 20 Sudoeste 0 -- -- 68
2019-05-07 10:00:00 13.3 10 Sudoeste 20 Sudoeste 0 -- -- 72
2019-05-07 09:00:00 10.9 10 Sudoeste 23 Sudoeste 0 -- -- 77
2019-05-07 08:00:00 9.2 10 Sudoeste 17 Sudoeste 0 -- -- 82
2019-05-07 07:00:00 7 3 Sudoeste 10 Sudoeste 0 -- -- 80
2019-05-07 06:00:00 7.7 5 Sudoeste 9 Sudoeste 0 -- -- 79
2019-05-07 05:00:00 6 0 Calma 4 Sudoeste 0 -- -- 85
2019-05-07 04:00:00 6.4 2 Nordeste 7 Noroeste 0 -- -- 85
2019-05-07 03:00:00 7.8 3 Este 6 Este 0 -- -- 81
2019-05-07 02:00:00 9.8 4 Este 5 Nordeste 0 -- -- 76
2019-05-07 01:00:00 10.7 3 Este 13 Este 0 -- -- 73
2019-05-07 00:00:00 12.3 10 Este 15 Nordeste 0 -- -- 66
2019-05-06 23:00:00 15.1 2 Sudoeste 10 Sudoeste 0 -- -- 57
2019-05-06 22:00:00 15.8 0 Calma 4 Sur 0 -- -- 57
2019-05-06 21:00:00 20.6 3 Sudoeste 9 Sudoeste 0 -- -- 39
2019-05-06 20:00:00 21.2 5 Oeste 18 Oeste 0 -- -- 35
2019-05-06 19:00:00 22.1 10 Oeste 26 Oeste 0 -- -- 30
2019-05-06 18:00:00 23.3 15 Oeste 27 Oeste 0 -- -- 27
2019-05-06 17:00:00 23 13 Oeste 26 Oeste 0 -- -- 29
2019-05-06 16:00:00 22.4 15 Oeste 27 Oeste 0 -- -- 30
2019-05-06 15:00:00 21.4 11 Noroeste 26 Oeste 0 -- -- 33
2019-05-06 14:00:00 20.3 7 Oeste 19 Oeste 0 -- -- 36
2019-05-06 13:00:00 18.1 7 Oeste 17 Noroeste 0 -- -- 36
2019-05-06 12:00:00 15.2 5 Sudoeste 12 Sudoeste 0 -- -- 37
2019-05-06 11:00:00 12.1 4 Sudoeste 8 Sudoeste 0 -- -- 46
2019-05-06 10:00:00 8.4 2 Norte 5 Este 0 -- -- 57
2019-05-06 09:00:00 4.6 2 Nordeste 6 Nordeste 0 -- -- 73
2019-05-06 08:00:00 -0.2 0 Calma 2 Nordeste 0 -- -- 87
2019-05-06 07:00:00 -0.2 0 Calma 3 Oeste 0 -- -- 85
2019-05-06 06:00:00 0.4 0 Calma 8 Este 0 -- -- 81
2019-05-06 05:00:00 1.4 4 Este 11 Este 0 -- -- 77
2019-05-06 04:00:00 1.9 8 Este 15 Este 0 -- -- 74
2019-05-06 03:00:00 2.2 8 Nordeste 13 Nordeste 0 -- -- 70
2019-05-06 02:00:00 2.9 5 Nordeste 14 Nordeste 0 -- -- 68
2019-05-06 01:00:00 4.3 9 Nordeste 14 Nordeste 0 -- -- 60
2019-05-06 00:00:00 5.6 7 Nordeste 18 Nordeste 0 -- -- 55
2019-05-05 23:00:00 6.5 9 Nordeste 15 Nordeste 0 -- -- 57
2019-05-05 22:00:00 7.6 8 Nordeste 13 Nordeste 0 -- -- 57
2019-05-05 21:00:00 10.8 3 Nordeste 14 Nordeste 0 -- -- 47
2019-05-05 20:00:00 13.5 8 Este 19 Nordeste 0 -- -- 36
2019-05-05 19:00:00 14.9 11 Este 24 Este 0 -- -- 33
2019-05-05 18:00:00 15.2 12 Nordeste 25 Este 0 -- -- 30
2019-05-05 17:00:00 14.8 15 Nordeste 34 Este 0 -- -- 30
2019-05-05 16:00:00 14.2 18 Nordeste 35 Nordeste 0 -- -- 31
2019-05-05 15:00:00 13.2 19 Nordeste 33 Nordeste 0 -- -- 27
2019-05-05 14:00:00 12.4 17 Nordeste 36 Este 0 -- -- 34
2019-05-05 13:00:00 11.4 18 Nordeste 37 Este 0 -- -- 32
2019-05-05 12:00:00 9.6 15 Este 32 Este 0 -- -- 41
2019-05-05 11:00:00 7.8 17 Nordeste 31 Este 0 -- -- 45
2019-05-05 10:00:00 6.3 19 Nordeste 35 Este 0 -- -- 53
2019-05-05 09:00:00 5.1 16 Nordeste 28 Nordeste 0 -- -- 66
2019-05-05 08:00:00 3.9 10 Nordeste 29 Nordeste 0 -- -- 73
2019-05-05 07:00:00 4.3 10 Nordeste 28 Nordeste 0 -- -- 74
2019-05-05 06:00:00 3.8 12 Nordeste 25 Este 0 -- -- 82
2019-05-05 05:00:00 3.5 5 Nordeste 16 Nordeste 0 -- -- 86
2019-05-05 04:00:00 4.7 10 Nordeste 32 Nordeste 0 -- -- 82
2019-05-05 03:00:00 5.5 13 Nordeste 24 Nordeste 0 -- -- 78
2019-05-05 02:00:00 5.2 10 Nordeste 27 Nordeste 0 -- -- 79
2019-05-05 01:00:00 6.2 10 Nordeste 30 Nordeste 0 -- -- 79
2019-05-05 00:00:00 7 10 Nordeste 30 Nordeste 0 -- -- 81
2019-05-04 23:00:00 7.7 14 Nordeste 30 Este 0 -- -- 78
2019-05-04 22:00:00 8.4 15 Nordeste 34 Nordeste 0 -- -- 74
2019-05-04 21:00:00 10.1 21 Nordeste 44 Nordeste 0 -- -- 67
2019-05-04 20:00:00 13.5 22 Nordeste 38 Nordeste 0 -- -- 56
2019-05-04 19:00:00 17.4 22 Nordeste 32 Nordeste 0 -- -- 47
2019-05-04 18:00:00 19.4 7 Nordeste 17 Norte 0 -- -- 36
2019-05-04 17:00:00 19 9 Nordeste 18 Noroeste 0 -- -- 37
2019-05-04 16:00:00 17.4 9 Norte 22 Norte 0 -- -- 40
2019-05-04 15:00:00 16.8 7 Norte 24 Norte 0 -- -- 41
2019-05-04 14:00:00 15.5 6 Noroeste 17 Noroeste 0 -- -- 47
2019-05-04 13:00:00 13.9 8 Nordeste 18 Norte 0 -- -- 54
2019-05-04 12:00:00 11.8 9 Noroeste 15 Norte 0 -- -- 58
2019-05-04 11:00:00 10 4 Oeste 12 Sudoeste 0 -- -- 67
2019-05-04 10:00:00 7.1 2 Sudoeste 5 Sudoeste 0 -- -- 77
2019-05-04 09:00:00 3.7 0 Calma 4 Este 0 -- -- 90
2019-05-04 08:00:00 -0.5 0 Calma 3 Sudeste 0 -- -- 93
2019-05-04 07:00:00 -0.5 3 Este 6 Nordeste 0 -- -- 92
2019-05-04 06:00:00 -0.4 4 Nordeste 9 Este 0 -- -- 89
2019-05-04 05:00:00 1.8 2 Sudoeste 6 Sudoeste 0 -- -- 90
2019-05-04 04:00:00 1.8 2 Sudeste 6 Sudoeste 0 -- -- 90
2019-05-04 03:00:00 2.1 0 Calma 5 Nordeste 0 -- -- 89
2019-05-04 02:00:00 2.6 2 Nordeste 13 Este 0 -- -- 86
2019-05-04 01:00:00 3.8 7 Este 15 Este 0 -- -- 84
2019-05-04 00:00:00 5.3 9 Este 18 Este 0 -- -- 80
2019-05-03 23:00:00 5.6 6 Nordeste 22 Nordeste 0 -- -- 79
2019-05-03 22:00:00 6.8 12 Nordeste 21 Nordeste 0 -- -- 76
2019-05-03 21:00:00 9.1 9 Nordeste 33 Nordeste 0 -- -- 66
2019-05-03 20:00:00 11.6 16 Nordeste 36 Nordeste 0 -- -- 57
2019-05-03 19:00:00 12.8 19 Nordeste 39 Norte 0 -- -- 55
2019-05-03 18:00:00 13.8 19 Nordeste 42 Nordeste 0 -- -- 53
2019-05-03 17:00:00 14.4 20 Nordeste 38 Nordeste 0 -- -- 51
2019-05-03 16:00:00 14.9 17 Nordeste 35 Este 0 -- -- 51
2019-05-03 15:00:00 14.4 18 Nordeste 36 Nordeste 0 -- -- 51
2019-05-03 14:00:00 13.1 19 Nordeste 46 Este 0 -- -- 56
2019-05-03 13:00:00 12.9 22 Nordeste 39 Nordeste 0 -- -- 54
2019-05-03 12:00:00 11.1 20 Nordeste 38 Nordeste 0 -- -- 59
2019-05-03 11:00:00 9 18 Nordeste 33 Nordeste 0 -- -- 67
2019-05-03 10:00:00 7.5 13 Nordeste 24 Este 0 -- -- 80
2019-05-03 09:00:00 5.4 10 Este 19 Este 0 -- -- 87
2019-05-03 08:00:00 1.8 3 Nordeste 9 Este 0 -- -- 94
2019-05-03 07:00:00 0.9 4 Nordeste 8 Nordeste 0 -- -- 91
2019-05-03 06:00:00 1.3 4 Nordeste 8 Nordeste 0 -- -- 90
2019-05-03 05:00:00 1.9 2 Norte 8 Nordeste 0 -- -- 89
2019-05-03 04:00:00 2.3 3 Este 11 Este 0 -- -- 89
2019-05-03 03:00:00 2.9 4 Nordeste 13 Este 0 -- -- 87
2019-05-03 02:00:00 3.5 2 Nordeste 17 Este 0 -- -- 85
2019-05-03 01:00:00 4.5 3 Nordeste 18 Nordeste 0 -- -- 84
2019-05-03 00:00:00 5.4 11 Nordeste 18 Nordeste 0 -- -- 82
2019-05-02 23:00:00 6.9 10 Nordeste 22 Nordeste 0 -- -- 77
2019-05-02 22:00:00 8.1 13 Nordeste 31 Nordeste 0 -- -- 72
2019-05-02 21:00:00 10.4 15 Nordeste 39 Nordeste 0 -- -- 65
2019-05-02 20:00:00 14 21 Nordeste 40 Nordeste 0 -- -- 51
2019-05-02 19:00:00 16.4 21 Nordeste 39 Este 0 -- -- 43
2019-05-02 18:00:00 17 20 Nordeste 41 Este 0 -- -- 46
2019-05-02 17:00:00 17.4 20 Nordeste 39 Nordeste 0 -- -- 46
2019-05-02 16:00:00 17.4 19 Nordeste 38 Este 0 -- -- 44
2019-05-02 15:00:00 16.2 21 Este 39 Este 0 -- -- 49
2019-05-02 14:00:00 15.2 24 Este 39 Nordeste 0 -- -- 51
2019-05-02 13:00:00 14.5 22 Nordeste 41 Nordeste 0 -- -- 52
2019-05-02 12:00:00 13.3 21 Nordeste 41 Nordeste 0 -- -- 55
2019-05-02 11:00:00 11.7 19 Nordeste 44 Este 0 -- -- 59
2019-05-02 10:00:00 9.8 22 Nordeste 39 Nordeste 0 -- -- 64
2019-05-02 09:00:00 7.3 20 Nordeste 36 Nordeste 0 -- -- 73
2019-05-02 08:00:00 4.1 15 Nordeste 31 Nordeste 0 -- -- 84
2019-05-02 07:00:00 3.5 13 Nordeste 31 Nordeste 0 -- -- 86
2019-05-02 06:00:00 4.4 17 Nordeste 32 Nordeste 0 -- -- 84
2019-05-02 05:00:00 4.5 14 Nordeste 29 Nordeste 0 -- -- 83
2019-05-02 04:00:00 4.8 15 Nordeste 30 Nordeste 0 -- -- 82
2019-05-02 03:00:00 5.7 20 Nordeste 36 Nordeste 0 -- -- 79
2019-05-02 02:00:00 6.3 25 Nordeste 44 Nordeste 0 -- -- 77
2019-05-02 01:00:00 6.7 19 Nordeste 32 Nordeste 0 -- -- 77
2019-05-02 00:00:00 7.3 21 Nordeste 40 Nordeste 0 -- -- 78
2019-05-01 23:00:00 8.2 22 Nordeste 49 Nordeste 0 -- -- 81
2019-05-01 22:00:00 8.9 27 Nordeste 50 Este 0 -- -- 79
2019-05-01 21:00:00 10.3 30 Nordeste 51 Nordeste 0 -- -- 71
2019-05-01 20:00:00 12.2 31 Nordeste 52 Nordeste 0 -- -- 66
2019-05-01 19:00:00 16.6 29 Nordeste 42 Nordeste 0 -- -- 56
2019-05-01 18:00:00 18.7 24 Nordeste 42 Nordeste 0 -- -- 53
2019-05-01 17:00:00 20.1 22 Nordeste 37 Nordeste 0 -- -- 47
2019-05-01 16:00:00 22.2 7 Nordeste 19 Nordeste 0 -- -- 32
2019-05-01 15:00:00 21.9 7 Nordeste 18 Este 0 -- -- 32
2019-05-01 14:00:00 21 8 Este 21 Este 0 -- -- 30
2019-05-01 13:00:00 19.4 10 Este 19 Este 0 -- -- 38
2019-05-01 12:00:00 17.3 9 Nordeste 19 Nordeste 0 -- -- 45
2019-05-01 11:00:00 14.8 9 Nordeste 17 Este 0 -- -- 48
2019-05-01 10:00:00 11.3 8 Este 14 Nordeste 0 -- -- 58
2019-05-01 09:00:00 8.6 7 Este 13 Este 0 -- -- 67
2019-05-01 08:00:00 4.1 5 Nordeste 9 Nordeste 0 -- -- 84
2019-05-01 07:00:00 3.7 4 Nordeste 8 Nordeste 0 -- -- 80
2019-05-01 06:00:00 3.8 2 Nordeste 6 Nordeste 0 -- -- 80
2019-05-01 05:00:00 4.6 3 Nordeste 10 Este 0 -- -- 79
2019-05-01 04:00:00 5.9 3 Nordeste 10 Nordeste 0 -- -- 72
2019-05-01 03:00:00 6.8 6 Nordeste 12 Nordeste 0 -- -- 75
2019-05-01 02:00:00 7.6 7 Nordeste 15 Este 0 -- -- 72
2019-05-01 01:00:00 9.6 8 Este 19 Este 0 -- -- 64
2019-05-01 00:00:00 10.3 10 Nordeste 22 Nordeste 0 -- -- 65
2019-04-30 23:00:00 11.1 9 Nordeste 16 Nordeste 0 -- -- 67
2019-04-30 22:00:00 12.5 9 Nordeste 12 Nordeste 0 -- -- 62
2019-04-30 21:00:00 16.3 5 Nordeste 19 Este 0 -- -- 52
2019-04-30 20:00:00 19.5 13 Este 24 Este 0 -- -- 37
2019-04-30 19:00:00 21.2 10 Este 22 Este 0 -- -- 38
2019-04-30 18:00:00 22.3 9 Nordeste 22 Norte 0 -- -- 30
2019-04-30 17:00:00 22.3 10 Nordeste 23 Norte 0 -- -- 33
2019-04-30 16:00:00 21.9 10 Nordeste 23 Nordeste 0 -- -- 30
2019-04-30 15:00:00 21.2 9 Nordeste 21 Nordeste 0 -- -- 33
2019-04-30 14:00:00 20.4 13 Nordeste 25 Este 0 -- -- 36
2019-04-30 13:00:00 19.7 13 Nordeste 25 Nordeste 0 -- -- 36
2019-04-30 12:00:00 18.1 12 Nordeste 22 Nordeste 0 -- -- 46
2019-04-30 11:00:00 15.9 3 Este 9 Este 0 -- -- 55
2019-04-30 10:00:00 12.3 4 Nordeste 8 Nordeste 0 -- -- 70
2019-04-30 09:00:00 9.4 4 Nordeste 8 Nordeste 0 -- -- 82
2019-04-30 08:00:00 5.5 3 Este 7 Nordeste 0 -- -- 89
2019-04-30 07:00:00 5.7 5 Nordeste 9 Nordeste 0 -- -- 90
2019-04-30 06:00:00 5.9 5 Nordeste 10 Nordeste 0 -- -- 91
2019-04-30 05:00:00 6.7 5 Nordeste 10 Nordeste 0 -- -- 89
2019-04-30 04:00:00 6.9 4 Nordeste 9 Nordeste 0 -- -- 87
2019-04-30 03:00:00 7.7 4 Nordeste 10 Nordeste 0 -- -- 86
2019-04-30 02:00:00 8.5 5 Este 12 Nordeste 0 -- -- 83
2019-04-30 01:00:00 9.9 2 Este 10 Nordeste 0 -- -- 75
2019-04-30 00:00:00 12.3 7 Este 16 Este 0 -- -- 65
2019-04-29 23:00:00 13.3 10 Este 15 Este 0 -- -- 62
2019-04-29 22:00:00 14.4 10 Nordeste 17 Este 0 -- -- 64
2019-04-29 21:00:00 18.2 7 Nordeste 16 Nordeste 0 -- -- 54
2019-04-29 20:00:00 21.5 5 Nordeste 9 Nordeste 0 -- -- 40
2019-04-29 19:00:00 22 2 Este 14 Norte 0 -- -- 38
2019-04-29 18:00:00 22.6 4 Norte 10 Este 0 -- -- 34
2019-04-29 17:00:00 22.8 8 Norte 16 Norte 0 -- -- 37
2019-04-29 16:00:00 22.2 8 Norte 17 Norte 0 -- -- 40
2019-04-29 15:00:00 21.7 5 Noroeste 16 Noroeste 0 -- -- 42
2019-04-29 14:00:00 20.7 7 Este 12 Sudeste 0 -- -- 44
2019-04-29 13:00:00 18.8 3 Norte 12 Nordeste 0 -- -- 45
2019-04-29 12:00:00 16.6 5 Nordeste 10 Nordeste 0 -- -- 54
2019-04-29 11:00:00 14.7 3 Este 8 Este 0 -- -- 59
2019-04-29 10:00:00 12.2 2 Este 11 Nordeste 0 -- -- 66
2019-04-29 09:00:00 8.4 2 Norte 9 Este 0 -- -- 80
2019-04-29 08:00:00 5 2 Este 9 Nordeste 0 -- -- 87
2019-04-29 07:00:00 4.9 3 Nordeste 7 Este 0 -- -- 87
2019-04-29 06:00:00 4.8 3 Nordeste 5 Nordeste 0 -- -- 87
2019-04-29 05:00:00 5.9 0 Calma 8 Nordeste 0 -- -- 84
2019-04-29 04:00:00 6.6 7 Nordeste 17 Este 0 -- -- 83
2019-04-29 03:00:00 7.1 10 Nordeste 20 Nordeste 0 -- -- 83
2019-04-29 02:00:00 8 9 Este 20 Nordeste 0 -- -- 81
2019-04-29 01:00:00 9.6 13 Nordeste 18 Nordeste 0 -- -- 78
2019-04-29 00:00:00 10.3 10 Nordeste 16 Nordeste 0 -- -- 76
2019-04-28 23:00:00 10.8 7 Nordeste 12 Nordeste 0 -- -- 75
2019-04-28 22:00:00 13 3 Nordeste 8 Nordeste 0 -- -- 66
2019-04-28 21:00:00 15.6 4 Nordeste 19 Este 0 -- -- 57
2019-04-28 20:00:00 18.8 13 Este 24 Este 0 -- -- 43
2019-04-28 19:00:00 20.3 12 Este 24 Este 0 -- -- 42
2019-04-28 18:00:00 21.2 9 Nordeste 16 Este 0 -- -- 38
2019-04-28 17:00:00 20.9 5 Nordeste 13 Noroeste 0 -- -- 34
2019-04-28 16:00:00 20.1 6 Este 14 Nordeste 0 -- -- 33
2019-04-28 15:00:00 19.1 5 Este 14 Este 0 -- -- 39
2019-04-28 14:00:00 18 6 Este 15 Norte 0 -- -- 44
2019-04-28 13:00:00 16.5 7 Nordeste 18 Nordeste 0 -- -- 47
2019-04-28 12:00:00 14.3 7 Este 19 Nordeste 0 -- -- 56
2019-04-28 11:00:00 12.3 7 Nordeste 19 Nordeste 0 -- -- 65
2019-04-28 10:00:00 9.9 10 Nordeste 17 Nordeste 0 -- -- 76
2019-04-28 09:00:00 6.9 5 Este 10 Este 0 -- -- 89
2019-04-28 08:00:00 3.5 2 Noroeste 4 Noroeste 0 -- -- 93
2019-04-28 07:00:00 3.6 0 Calma 6 Este 0 -- -- 92
2019-04-28 06:00:00 4.1 4 Este 10 Nordeste 0 -- -- 92
2019-04-28 05:00:00 4.2 6 Nordeste 13 Este 0 -- -- 91
2019-04-28 04:00:00 5.2 9 Este 18 Este 0 -- -- 90
2019-04-28 03:00:00 5.4 11 Este 16 Este 0 -- -- 91
2019-04-28 02:00:00 5.9 10 Nordeste 18 Este 0 -- -- 90
2019-04-28 01:00:00 6.5 12 Nordeste 18 Nordeste 0 -- -- 90
2019-04-28 00:00:00 7.3 10 Nordeste 20 Nordeste 0 -- -- 89
2019-04-27 23:00:00 8.5 11 Nordeste 24 Nordeste 0 -- -- 86
2019-04-27 22:00:00 10.3 12 Nordeste 24 Nordeste 0 -- -- 81
2019-04-27 21:00:00 14 14 Nordeste 24 Nordeste 0 -- -- 70
2019-04-27 20:00:00 18.4 3 Este 9 Este 0 -- -- 45
2019-04-27 19:00:00 19.2 4 Noroeste 16 Nordeste 0 -- -- 46
2019-04-27 18:00:00 18.8 8 Norte 16 Nordeste 0 -- -- 48
2019-04-27 17:00:00 18.5 5 Oeste 14 Norte 0 -- -- 49
2019-04-27 16:00:00 18.1 6 Noroeste 12 Noroeste 0 -- -- 49
2019-04-27 15:00:00 16.9 8 Norte 19 Noroeste 0 -- -- 54
2019-04-27 14:00:00 15.6 4 Sudoeste 14 Sudoeste 0 -- -- 58
2019-04-27 13:00:00 14.3 6 Oeste 12 Noroeste 0 -- -- 58
2019-04-27 12:00:00 12.1 3 Sur 9 Oeste 0 -- -- 70
2019-04-27 11:00:00 9.7 3 Sudoeste 8 Oeste 0 -- -- 77
2019-04-27 10:00:00 7.3 2 Noroeste 4 Norte 0 -- -- 82
2019-04-27 09:00:00 4.7 0 Calma 6 Este 0 -- -- 92
2019-04-27 08:00:00 1.2 0 Calma 7 Este 0 -- -- 93
2019-04-27 07:00:00 1.2 3 Este 6 Este 0 -- -- 92
2019-04-27 06:00:00 1.9 2 Nordeste 7 Nordeste 0 -- -- 90
2019-04-27 05:00:00 2.8 4 Sudeste 8 Sudeste 0 -- -- 91
2019-04-27 04:00:00 2.6 3 Este 7 Sudoeste 0 -- -- 89
2019-04-27 03:00:00 3.5 0 Calma 4 Oeste 0 -- -- 88
2019-04-27 02:00:00 4.9 3 Oeste 9 Sudoeste 0 -- -- 84
2019-04-27 01:00:00 5.8 4 Sudoeste 8 Sudoeste 0 -- -- 81
2019-04-27 00:00:00 6.5 3 Sudoeste 9 Sudoeste 0 -- -- 79
2019-04-26 23:00:00 7.7 5 Sudoeste 10 Sudoeste 0 -- -- 76
2019-04-26 22:00:00 9.1 4 Sudoeste 6 Sudoeste 0 -- -- 68
2019-04-26 21:00:00 12.3 3 Sudoeste 18 Oeste 0 -- -- 55
2019-04-26 20:00:00 14 10 Oeste 27 Oeste 0 -- -- 46
2019-04-26 19:00:00 14.5 13 Oeste 29 Oeste 0 -- -- 44
2019-04-26 18:00:00 14.6 15 Oeste 33 Sudoeste 0 -- -- 42
2019-04-26 17:00:00 14.5 17 Oeste 31 Oeste 0 -- -- 45
2019-04-26 16:00:00 13.4 15 Oeste 32 Oeste 0 -- -- 53
2019-04-26 15:00:00 12.7 13 Oeste 35 Oeste 0 -- -- 55
2019-04-26 14:00:00 11.2 15 Oeste 39 Sudoeste 0 -- -- 60
2019-04-26 13:00:00 11.3 21 Oeste 35 Noroeste 0 -- -- 60
2019-04-26 12:00:00 10 18 Oeste 39 Oeste 0 -- -- 66
2019-04-26 11:00:00 9.4 20 Oeste 35 Oeste 0 -- -- 70
2019-04-26 10:00:00 7.4 15 Oeste 27 Oeste 0 -- -- 80
2019-04-26 09:00:00 5.8 10 Sudoeste 21 Sudoeste 0 -- -- 88
2019-04-26 08:00:00 4.5 7 Sudoeste 20 Sudoeste 0 -- -- 91
2019-04-26 07:00:00 4.6 11 Sudoeste 24 Oeste 0 -- -- 90
2019-04-26 06:00:00 5.3 17 Sudoeste 29 Oeste 0 -- -- 88
2019-04-26 05:00:00 5.8 12 Oeste 30 Sudoeste 0 -- -- 89
2019-04-26 04:00:00 6.2 18 Sudoeste 36 Oeste 0 -- -- 87
2019-04-26 03:00:00 6 22 Sudoeste 41 Sudoeste 0 -- -- 86
2019-04-26 02:00:00 6.4 24 Sudoeste 42 Sudoeste 0 -- -- 84
2019-04-26 01:00:00 6.4 26 Sudoeste 45 Sudoeste 0 -- -- 83
2019-04-26 00:00:00 6.2 24 Sudoeste 42 Sudoeste 0 -- -- 83